METAR EVRA 160750Z 17008KT 7000 -SHRA SCT043CB 13/13 Q1006 RESHRA NOSIG =

ATC Feedback

If you've had an experience which you would like to give us feedback about, you're encouraged to fill out our online form, available HERE.

Controllers Online

PositionControllerOnline
No controllers currently online

Booked ATC Today

* Times are UTC

The time is now

UTC: 

Local: 

Latvia vACC on twitter

Official vACC of:

  

Latvia vACC on Facebook